createdAt,value
2023-02-15T04:48:20.015Z,101853.38
2023-02-15T04:50:47.097Z,101842.91
2023-02-15T04:53:17.580Z,101846.78
2023-02-15T04:55:44.806Z,101866.53
2023-02-15T04:58:11.435Z,101825.34
2023-02-15T05:00:39.786Z,101867.09
2023-02-15T05:03:08.136Z,101864.88
2023-02-15T05:05:34.771Z,101858.84
2023-02-15T05:08:01.852Z,101789.13
2023-02-15T05:10:28.747Z,101855.56
2023-02-15T05:12:55.495Z,101864.34
2023-02-15T05:15:22.840Z,101886.31
2023-02-15T05:17:49.941Z,101864.59
2023-02-15T05:20:17.592Z,101851.16
2023-02-15T05:22:44.193Z,101841.81
2023-02-15T05:25:29.723Z,101867.63
2023-02-15T05:28:15.242Z,101861.31
2023-02-15T05:30:42.116Z,101841.25
2023-02-15T05:33:08.990Z,101867.06
2023-02-15T05:35:35.850Z,101859.09
2023-02-15T05:38:02.906Z,101860.19
2023-02-15T05:40:29.878Z,101847.84
2023-02-15T05:42:57.444Z,101855.84
2023-02-15T05:45:24.479Z,101836.88
2023-02-15T05:47:51.189Z,101845.13
2023-02-15T05:50:18.146Z,101859.38
2023-02-15T05:52:45.021Z,101873.16
2023-02-15T05:55:13.197Z,101818.22
2023-02-15T05:57:40.722Z,101868.72
2023-02-15T06:00:08.245Z,101839.06
2023-02-15T06:02:40.915Z,101870.94
2023-02-15T06:05:09.100Z,101855.53
2023-02-15T06:07:37.775Z,101875.31
2023-02-15T06:10:06.019Z,101880.84
2023-02-15T06:12:33.255Z,101845.38
2023-02-15T06:15:00.535Z,101881.09
2023-02-15T06:17:27.916Z,101875.91
2023-02-15T06:19:54.746Z,101887.97
2023-02-15T06:22:21.421Z,101874.78
2023-02-15T06:24:48.807Z,101880.81
2023-02-15T06:27:16.536Z,101894.59
2023-02-15T06:29:43.843Z,101824.00
2023-02-15T06:32:11.182Z,101824.81
2023-02-15T06:34:37.794Z,101901.16
2023-02-15T06:37:04.433Z,101911.03
2023-02-15T06:39:31.712Z,101902.81
2023-02-15T06:41:59.080Z,101906.09
2023-02-15T06:44:26.803Z,101923.16
2023-02-15T06:46:53.470Z,101918.47
2023-02-15T06:49:21.395Z,101916.53
2023-02-15T06:51:48.742Z,101850.63
2023-02-15T06:54:15.969Z,101873.69
2023-02-15T06:56:44.656Z,101902.78
2023-02-15T06:59:11.351Z,101918.19
2023-02-15T07:01:39.071Z,101895.38
2023-02-15T07:04:07.518Z,101917.63
2023-02-15T07:06:34.630Z,101916.53
2023-02-15T07:09:02.931Z,101883.88
2023-02-15T07:11:48.808Z,101841.84
2023-02-15T07:14:15.528Z,101919.28
2023-02-15T07:16:42.409Z,101920.91
2023-02-15T07:19:09.487Z,101885.78
2023-02-15T07:21:36.720Z,101890.44
2023-02-15T07:24:03.851Z,101846.50
2023-02-15T07:26:32.604Z,101926.69
2023-02-15T07:28:59.710Z,101921.47
2023-02-15T07:31:26.717Z,101937.41
2023-02-15T07:33:54.110Z,101908.28
2023-02-15T07:36:21.182Z,101917.09
2023-02-15T07:38:48.483Z,101919.84
2023-02-15T07:41:15.999Z,101906.38
2023-02-15T07:43:43.832Z,101914.34
2023-02-15T07:46:13.083Z,101908.28
2023-02-15T07:48:40.541Z,101910.47
2023-02-15T07:51:07.984Z,101911.31
2023-02-15T07:53:34.709Z,101903.06
2023-02-15T07:56:05.469Z,101901.16
2023-02-15T07:58:51.249Z,101910.78
2023-02-15T08:01:37.260Z,101869.84
2023-02-15T08:04:05.574Z,101903.91
2023-02-15T08:06:34.704Z,101884.69
2023-02-15T08:09:12.820Z,101916.53
2023-02-15T08:11:42.803Z,101851.44
2023-02-15T08:14:14.235Z,101924.22
2023-02-15T08:16:50.842Z,101920.13
2023-02-15T08:19:21.650Z,101815.16
2023-02-15T08:21:53.193Z,101906.09
2023-02-15T08:24:24.385Z,101889.91
2023-02-15T08:26:51.473Z,101867.94
2023-02-15T08:29:20.270Z,101872.03
2023-02-15T08:31:47.732Z,101888.50
2023-02-15T08:34:16.443Z,101887.69
2023-02-15T08:36:46.170Z,101859.41
2023-02-15T08:39:14.122Z,101893.44
2023-02-15T08:41:44.370Z,101872.03
2023-02-15T08:44:11.839Z,101841.56
2023-02-15T08:46:40.285Z,101887.97
2023-02-15T08:49:06.980Z,101891.81
2023-02-15T08:51:36.268Z,101881.38
2023-02-15T08:54:08.097Z,101881.91
2023-02-15T08:56:37.073Z,101878.09
2023-02-15T08:59:04.388Z,101887.97
2023-02-15T09:01:32.803Z,101869.28
2023-02-15T09:04:09.909Z,101880.56
2023-02-15T09:06:38.336Z,101869.84
2023-02-15T09:09:06.028Z,101897.56
2023-02-15T09:11:36.532Z,101877.81
2023-02-15T09:14:05.711Z,101874.75
2023-02-15T09:16:35.457Z,101871.47
2023-02-15T09:19:02.554Z,101863.25
2023-02-15T09:21:30.088Z,101850.06
2023-02-15T09:24:01.234Z,101836.59
2023-02-15T09:26:29.993Z,101835.25
2023-02-15T09:28:58.303Z,101870.94
2023-02-15T09:31:32.750Z,101865.97
2023-02-15T09:34:00.099Z,101812.19
2023-02-15T09:36:28.516Z,101848.41
2023-02-15T09:38:56.397Z,101856.09
2023-02-15T09:41:36.719Z,101865.44
2023-02-15T09:44:18.439Z,101873.69
2023-02-15T09:47:17.330Z,101867.66
2023-02-15T09:50:13.989Z,101867.09
2023-02-15T09:52:49.247Z,101873.69
2023-02-15T09:55:38.847Z,101875.88
2023-02-15T09:58:06.357Z,101879.47
2023-02-15T10:00:51.175Z,101878.91
2023-02-15T10:03:40.041Z,101873.13
2023-02-15T10:06:25.225Z,101881.38
2023-02-15T10:09:04.033Z,101851.94
2023-02-15T10:11:42.567Z,101875.88
2023-02-15T10:14:44.246Z,101853.34
2023-02-15T10:17:19.986Z,101875.34
2023-02-15T10:20:19.145Z,101879.44
2023-02-15T10:23:11.692Z,101859.94
2023-02-15T10:25:53.790Z,101874.50
2023-02-15T10:28:27.565Z,101883.03
2023-02-15T10:31:37.578Z,101844.00
2023-02-15T10:34:11.595Z,101861.03
2023-02-15T10:37:06.865Z,101874.25
2023-02-15T10:39:55.326Z,101847.31
2023-02-15T10:42:29.559Z,101841.28
2023-02-15T10:45:14.629Z,101866.00
2023-02-15T10:48:05.950Z,101865.44
2023-02-15T10:50:45.510Z,101854.16
2023-02-15T10:53:30.703Z,101866.81
2023-02-15T10:56:04.516Z,101863.81
2023-02-15T10:58:52.890Z,101861.88
2023-02-15T11:01:25.277Z,101865.16
2023-02-15T11:04:11.063Z,101862.97
2023-02-15T11:06:40.635Z,101850.63
2023-02-15T11:09:12.778Z,101838.47
2023-02-15T11:11:43.372Z,101834.09
2023-02-15T11:14:38.560Z,101832.47
2023-02-15T11:17:23.152Z,101841.78
2023-02-15T11:20:19.264Z,101838.78
2023-02-15T11:22:49.457Z,101747.94
2023-02-15T11:25:29.754Z,101771.25
2023-02-15T11:27:57.128Z,101818.19
2023-02-15T11:30:27.044Z,101832.44
2023-02-15T11:32:59.834Z,101821.72
2023-02-15T11:35:32.964Z,101821.44
2023-02-15T11:38:09.437Z,101805.25
2023-02-15T11:40:49.253Z,101798.38
2023-02-15T11:43:26.072Z,101772.31
2023-02-15T11:45:56.622Z,101798.38
2023-02-15T11:48:24.173Z,101763.25
2023-02-15T11:50:51.586Z,101802.25
2023-02-15T11:53:26.992Z,101776.94
2023-02-15T11:55:53.901Z,101718.81
2023-02-15T11:58:42.766Z,101703.16
2023-02-15T12:01:14.583Z,101735.50
2023-02-15T12:03:45.821Z,101776.13
2023-02-15T12:06:42.866Z,101793.38
2023-02-15T12:09:30.882Z,101784.59
2023-02-15T12:12:21.302Z,101691.88
2023-02-15T12:14:58.864Z,101740.72
2023-02-15T12:17:38.969Z,101730.25
2023-02-15T12:20:18.843Z,101740.69
2023-02-15T12:22:57.573Z,101745.34
2023-02-15T12:25:28.069Z,101657.31
2023-02-15T12:27:54.916Z,101672.09
2023-02-15T12:30:31.277Z,101735.16
2023-02-15T12:33:34.875Z,101711.00
2023-02-15T12:36:20.153Z,101761.97
2023-02-15T12:39:09.248Z,101764.16
2023-02-15T12:41:39.212Z,101723.84
2023-02-15T12:44:05.904Z,101755.66
2023-02-15T12:46:37.879Z,101758.13
2023-02-15T12:49:21.771Z,101673.09
2023-02-15T12:51:48.715Z,101749.84
2023-02-15T12:54:44.482Z,101711.75
2023-02-15T12:57:26.734Z,101742.97
2023-02-15T13:00:00.432Z,101723.25
2023-02-15T13:02:29.906Z,101718.56
2023-02-15T13:04:56.982Z,101703.78
2023-02-15T13:07:25.801Z,101688.41
2023-02-15T13:09:52.715Z,101708.09
2023-02-15T13:12:22.791Z,101711.88
2023-02-15T13:14:53.238Z,101697.09
2023-02-15T13:17:30.237Z,101718.41
2023-02-15T13:20:28.305Z,101712.31
2023-02-15T13:23:00.930Z,101713.97
2023-02-15T13:25:30.981Z,101687.09
2023-02-15T13:28:02.856Z,101586.81
2023-02-15T13:30:40.083Z,101700.22
2023-02-15T13:33:11.934Z,101662.09
2023-02-15T13:35:57.519Z,101653.53
2023-02-15T13:38:33.574Z,101617.13
2023-02-15T13:41:02.845Z,101632.25
2023-02-15T13:43:52.529Z,101651.97
2023-02-15T13:46:49.056Z,101674.22
2023-02-15T13:49:35.649Z,101665.78
2023-02-15T13:52:08.496Z,101668.66
2023-02-15T13:54:44.655Z,101671.97
2023-02-15T13:57:21.054Z,101666.78
2023-02-15T14:00:25.881Z,101666.47
2023-02-15T14:02:57.471Z,101667.78
2023-02-15T14:05:52.289Z,101628.56
2023-02-15T14:08:40.495Z,101667.97
2023-02-15T14:11:10.179Z,101662.97
2023-02-15T14:14:00.499Z,101661.22
2023-02-15T14:17:05.478Z,101585.09
2023-02-15T14:19:55.510Z,101654.31
2023-02-15T14:22:42.282Z,101656.19
2023-02-15T14:25:19.636Z,101649.28
2023-02-15T14:28:04.269Z,101632.81
2023-02-15T14:30:36.084Z,101530.47
2023-02-15T14:33:12.471Z,101578.06
2023-02-15T14:35:40.530Z,101630.38
2023-02-15T14:38:37.524Z,101662.09
2023-02-15T14:41:30.026Z,101630.28
2023-02-15T14:44:09.015Z,101654.84
2023-02-15T14:46:48.621Z,101646.31
2023-02-15T14:49:20.100Z,101599.25
2023-02-15T14:51:47.018Z,101643.25
2023-02-15T14:54:21.436Z,101634.44
2023-02-15T14:57:08.752Z,101600.50
2023-02-15T14:59:59.652Z,101630.53
2023-02-15T15:02:26.426Z,101633.28
2023-02-15T15:04:53.247Z,101626.38
2023-02-15T15:07:39.583Z,101630.72
2023-02-15T15:10:28.338Z,101591.91
2023-02-15T15:12:58.338Z,101622.28
2023-02-15T15:15:29.605Z,101628.25
2023-02-15T15:18:12.353Z,101562.06
2023-02-15T15:20:43.174Z,101623.88
2023-02-15T15:23:20.206Z,101632.13
2023-02-15T15:25:57.112Z,101633.75
2023-02-15T15:28:39.064Z,101628.47
2023-02-15T15:31:32.371Z,101632.06
2023-02-15T15:34:39.176Z,101627.13
2023-02-15T15:38:21.143Z,101566.41
2023-02-15T15:41:20.022Z,101629.13
2023-02-15T15:44:14.317Z,101631.34
2023-02-15T15:47:06.307Z,101634.41
2023-02-15T15:49:38.581Z,101614.69
2023-02-15T15:52:19.796Z,101638.56
2023-02-15T15:54:50.274Z,101602.16
2023-02-15T15:57:24.273Z,101532.94
2023-02-15T15:59:51.872Z,101612.56
2023-02-15T16:02:18.809Z,101618.09
2023-02-15T16:04:52.086Z,101594.56
2023-02-15T16:07:27.338Z,101637.81
2023-02-15T16:10:08.923Z,101638.91
2023-02-15T16:12:37.295Z,101608.22
2023-02-15T16:15:16.955Z,101618.41
2023-02-15T16:17:44.674Z,101605.31
2023-02-15T16:20:31.910Z,101632.34
2023-02-15T16:23:33.953Z,101637.84
2023-02-15T16:26:15.753Z,101634.34
2023-02-15T16:28:53.158Z,101628.06
2023-02-15T16:31:24.365Z,101610.00
2023-02-15T16:33:56.108Z,101631.97
2023-02-15T16:36:27.062Z,101545.47
2023-02-15T16:38:54.139Z,101636.00
2023-02-15T16:41:25.927Z,101630.28
2023-02-15T16:43:53.714Z,101609.75
2023-02-15T16:46:30.454Z,101633.59
2023-02-15T16:49:00.814Z,101632.53
2023-02-15T16:51:34.621Z,101601.25
2023-02-15T16:54:26.483Z,101634.09
2023-02-15T16:56:53.313Z,101594.13
2023-02-15T16:59:32.634Z,101626.69
2023-02-15T17:01:59.611Z,101601.84
2023-02-15T17:04:31.278Z,101588.81
2023-02-15T17:07:18.342Z,101629.13
2023-02-15T17:09:55.536Z,101627.13
2023-02-15T17:12:49.667Z,101646.28
2023-02-15T17:15:26.211Z,101653.69
2023-02-15T17:17:54.050Z,101618.03
2023-02-15T17:20:20.931Z,101631.13
2023-02-15T17:22:49.890Z,101584.78
2023-02-15T17:25:25.366Z,101552.75
2023-02-15T17:27:56.205Z,101557.88
2023-02-15T17:30:29.440Z,101592.38
2023-02-15T17:32:59.179Z,101596.19
2023-02-15T17:35:28.743Z,101648.78
2023-02-15T17:38:21.224Z,101633.63
2023-02-15T17:40:48.345Z,101549.59
2023-02-15T17:43:15.150Z,101641.06
2023-02-15T17:45:50.298Z,101626.25
2023-02-15T17:48:21.957Z,101614.69
2023-02-15T17:50:49.097Z,101627.88
2023-02-15T17:53:19.213Z,101581.91
2023-02-15T17:55:46.387Z,101617.44
2023-02-15T17:58:14.947Z,101636.09
2023-02-15T18:01:03.992Z,101633.06
2023-02-15T18:04:05.394Z,101620.19
2023-02-15T18:06:51.535Z,101597.19
2023-02-15T18:09:38.080Z,101654.41
2023-02-15T18:12:29.212Z,101643.66
2023-02-15T18:14:57.024Z,101623.97
2023-02-15T18:17:46.235Z,101641.97
2023-02-15T18:20:20.475Z,101567.03
2023-02-15T18:22:48.623Z,101634.28
2023-02-15T18:25:17.253Z,101622.47
2023-02-15T18:27:44.336Z,101613.47
2023-02-15T18:30:15.915Z,101614.22
2023-02-15T18:32:42.740Z,101597.03
2023-02-15T18:35:16.296Z,101537.97
2023-02-15T18:37:43.304Z,101640.31
2023-02-15T18:40:15.908Z,101633.16
2023-02-15T18:42:47.167Z,101628.78
2023-02-15T18:45:25.172Z,101624.16
2023-02-15T18:47:52.516Z,101632.41
2023-02-15T18:50:20.658Z,101627.16
2023-02-15T18:52:49.165Z,101610.81
2023-02-15T18:55:20.517Z,101632.16
2023-02-15T18:57:48.295Z,101623.91
2023-02-15T19:00:22.810Z,101602.53
2023-02-15T19:02:49.881Z,101595.94
2023-02-15T19:05:18.241Z,101618.41
2023-02-15T19:07:48.644Z,101592.94
2023-02-15T19:10:26.538Z,101499.91
2023-02-15T19:12:55.853Z,101611.22
2023-02-15T19:15:27.425Z,101566.97
2023-02-15T19:17:54.706Z,101546.09
2023-02-15T19:20:45.508Z,101583.56
2023-02-15T19:23:23.778Z,101627.13
2023-02-15T19:25:52.313Z,101632.09
2023-02-15T19:28:32.731Z,101618.97
2023-02-15T19:30:59.716Z,101615.91
2023-02-15T19:33:27.639Z,101545.31
2023-02-15T19:35:57.330Z,101599.75
2023-02-15T19:38:33.304Z,101611.78
2023-02-15T19:41:15.540Z,101556.47
2023-02-15T19:43:42.411Z,101612.28
2023-02-15T19:46:15.314Z,101557.59
2023-02-15T19:48:42.008Z,101607.00
2023-02-15T19:51:09.407Z,101494.84
2023-02-15T19:53:38.742Z,101578.88
2023-02-15T19:56:06.618Z,101546.59
2023-02-15T19:58:36.638Z,101575.94
2023-02-15T20:01:07.227Z,101542.28
2023-02-15T20:03:35.487Z,101608.78
2023-02-15T20:06:15.919Z,101604.13
2023-02-15T20:08:44.025Z,101578.16
2023-02-15T20:11:12.555Z,101530.25
2023-02-15T20:13:42.518Z,101563.66
2023-02-15T20:16:15.938Z,101588.31
2023-02-15T20:18:46.737Z,101608.56
2023-02-15T20:21:37.794Z,101632.47
2023-02-15T20:24:22.492Z,101629.72
2023-02-15T20:27:24.153Z,101606.94
2023-02-15T20:30:05.411Z,101632.16
2023-02-15T20:32:38.003Z,101621.75
2023-02-15T20:35:09.124Z,101632.47
2023-02-15T20:37:39.985Z,101516.69
2023-02-15T20:40:17.549Z,101613.56
2023-02-15T20:42:47.750Z,101545.97
2023-02-15T20:45:24.123Z,101618.66
2023-02-15T20:47:52.055Z,101627.16
2023-02-15T20:50:20.886Z,101619.84
2023-02-15T20:52:48.911Z,101532.84
2023-02-15T20:55:20.651Z,101637.72
2023-02-15T20:57:47.551Z,101606.75
2023-02-15T21:00:29.808Z,101619.03
2023-02-15T21:03:03.286Z,101642.63
2023-02-15T21:05:36.230Z,101614.19
2023-02-15T21:08:08.298Z,101644.22
2023-02-15T21:10:40.624Z,101583.25
2023-02-15T21:13:11.525Z,101582.97
2023-02-15T21:15:44.117Z,101636.63
2023-02-15T21:18:15.684Z,101626.00
2023-02-15T21:20:46.155Z,101632.28
2023-02-15T21:23:14.238Z,101615.00
2023-02-15T21:25:46.176Z,101590.09
2023-02-15T21:28:22.124Z,101636.38
2023-02-15T21:30:50.831Z,101613.75
2023-02-15T21:33:20.544Z,101591.78
2023-02-15T21:35:49.530Z,101624.66
2023-02-15T21:38:18.208Z,101606.88
2023-02-15T21:40:45.033Z,101598.41
2023-02-15T21:43:36.909Z,101629.63
2023-02-15T21:46:30.891Z,101607.69
2023-02-15T21:49:02.341Z,101566.38
2023-02-15T21:51:48.688Z,101630.16
2023-02-15T21:54:19.734Z,101617.81
2023-02-15T21:56:54.094Z,101612.91
2023-02-15T21:59:21.748Z,101630.19
2023-02-15T22:01:50.642Z,101641.72
2023-02-15T22:04:25.378Z,101638.44
2023-02-15T22:06:52.282Z,101609.41
2023-02-15T22:09:23.604Z,101581.72
2023-02-15T22:11:50.491Z,101635.13
2023-02-15T22:14:35.548Z,101635.66
2023-02-15T22:17:02.767Z,101639.50
2023-02-15T22:19:30.069Z,101605.53
2023-02-15T22:21:56.838Z,101601.97
2023-02-15T22:24:23.582Z,101616.00
2023-02-15T22:26:50.312Z,101634.34
2023-02-15T22:29:17.420Z,101601.47
